createdAt,value
2023-05-15T00:00:01.659Z,14.40
2023-05-15T00:02:28.906Z,14.60
2023-05-15T00:04:56.293Z,14.70
2023-05-15T00:07:23.602Z,14.80
2023-05-15T00:09:50.773Z,14.80
2023-05-15T00:12:18.176Z,14.70
2023-05-15T00:14:45.391Z,14.80
2023-05-15T00:17:12.646Z,14.80
2023-05-15T00:19:39.837Z,14.80
2023-05-15T00:22:07.015Z,14.90
2023-05-15T00:24:34.509Z,15.10
2023-05-15T00:27:02.205Z,14.80
2023-05-15T00:29:29.494Z,14.90
2023-05-15T00:31:56.864Z,14.90
2023-05-15T00:34:24.372Z,15.00
2023-05-15T00:36:51.532Z,14.90
2023-05-15T00:39:18.719Z,14.60
2023-05-15T00:41:46.151Z,14.60
2023-05-15T00:44:15.449Z,14.70
2023-05-15T00:46:43.266Z,14.60
2023-05-15T00:49:13.521Z,14.40
2023-05-15T00:51:44.252Z,14.30
2023-05-15T00:54:11.825Z,14.20
2023-05-15T00:56:39.734Z,14.20
2023-05-15T00:59:07.297Z,14.20
2023-05-15T01:01:34.823Z,14.20
2023-05-15T01:04:03.115Z,14.20
2023-05-15T01:06:33.427Z,14.30
2023-05-15T01:09:04.455Z,14.40
2023-05-15T01:11:36.145Z,14.40
2023-05-15T01:14:07.616Z,14.40
2023-05-15T01:16:35.865Z,14.50
2023-05-15T01:19:04.097Z,14.40
2023-05-15T01:21:37.676Z,14.40
2023-05-15T01:24:45.603Z,14.50
2023-05-15T01:27:15.708Z,14.40
2023-05-15T01:30:09.955Z,14.40
2023-05-15T01:33:04.119Z,14.60
2023-05-15T01:35:33.631Z,14.40
2023-05-15T01:38:08.100Z,14.40
2023-05-15T01:40:35.374Z,14.40
2023-05-15T01:43:14.001Z,14.40
2023-05-15T01:45:42.382Z,14.00
2023-05-15T01:48:10.195Z,14.20
2023-05-15T01:50:37.768Z,14.30
2023-05-15T01:53:06.189Z,14.30
2023-05-15T01:55:34.808Z,14.50
2023-05-15T01:58:02.489Z,14.20
2023-05-15T02:00:30.172Z,14.00
2023-05-15T02:02:58.145Z,14.10
2023-05-15T02:05:27.238Z,14.30
2023-05-15T02:07:54.819Z,14.00
2023-05-15T02:10:22.439Z,14.10
2023-05-15T02:12:50.421Z,14.40
2023-05-15T02:15:18.558Z,14.70
2023-05-15T02:17:45.978Z,14.50
2023-05-15T02:20:14.289Z,14.60
2023-05-15T02:22:41.482Z,14.80
2023-05-15T02:25:08.944Z,14.70
2023-05-15T02:27:55.379Z,14.50
2023-05-15T02:30:46.690Z,14.60
2023-05-15T02:33:25.734Z,14.30
2023-05-15T02:35:57.350Z,14.40
2023-05-15T02:38:36.014Z,14.60
2023-05-15T02:41:04.412Z,14.60
2023-05-15T02:43:31.780Z,14.80
2023-05-15T02:46:00.609Z,14.70
2023-05-15T02:48:28.064Z,14.90
2023-05-15T02:50:55.221Z,14.70
2023-05-15T02:53:22.872Z,14.50
2023-05-15T02:55:50.046Z,14.50
2023-05-15T02:58:17.251Z,14.20
2023-05-15T03:00:44.470Z,13.80
2023-05-15T03:03:11.659Z,13.60
2023-05-15T03:05:38.908Z,14.00
2023-05-15T03:08:06.159Z,13.90
2023-05-15T03:10:33.587Z,13.70
2023-05-15T03:13:00.738Z,14.30
2023-05-15T03:15:28.169Z,14.30
2023-05-15T03:17:55.481Z,14.20
2023-05-15T03:20:22.750Z,14.30
2023-05-15T03:22:49.924Z,14.40
2023-05-15T03:25:17.180Z,14.40
2023-05-15T03:27:44.461Z,14.60
2023-05-15T03:30:11.870Z,14.60
2023-05-15T03:32:39.142Z,14.60
2023-05-15T03:35:06.702Z,14.30
2023-05-15T03:37:33.918Z,14.50
2023-05-15T03:40:01.062Z,14.60
2023-05-15T03:42:29.189Z,14.60
2023-05-15T03:44:56.716Z,14.40
2023-05-15T03:47:24.023Z,14.60
2023-05-15T03:49:51.200Z,14.70
2023-05-15T03:52:18.399Z,14.60
2023-05-15T03:54:45.751Z,14.50
2023-05-15T03:57:13.209Z,14.70
2023-05-15T03:59:40.412Z,14.60
2023-05-15T04:02:07.869Z,14.40
2023-05-15T04:04:35.370Z,14.50
2023-05-15T04:07:03.018Z,14.70
2023-05-15T04:09:30.258Z,14.70
2023-05-15T04:11:57.436Z,14.50
2023-05-15T04:14:24.608Z,14.30
2023-05-15T04:16:51.831Z,14.40
2023-05-15T04:19:19.139Z,14.60
2023-05-15T04:21:46.473Z,14.50
2023-05-15T04:24:13.634Z,14.70
2023-05-15T04:26:41.876Z,14.80
2023-05-15T04:29:09.441Z,14.50
2023-05-15T04:31:38.256Z,14.60
2023-05-15T04:34:05.970Z,14.70
2023-05-15T04:36:33.535Z,14.70
2023-05-15T04:39:00.873Z,14.80
2023-05-15T04:41:28.352Z,14.60
2023-05-15T04:43:55.938Z,14.90
2023-05-15T04:46:23.186Z,14.70
2023-05-15T04:48:50.711Z,14.30
2023-05-15T04:51:17.898Z,14.40
2023-05-15T04:53:45.052Z,14.60
2023-05-15T04:56:12.312Z,14.80
2023-05-15T04:58:39.487Z,14.70
2023-05-15T05:01:06.717Z,14.70
2023-05-15T05:03:33.977Z,14.80
2023-05-15T05:06:01.363Z,14.80
2023-05-15T05:08:28.602Z,14.70
2023-05-15T05:10:57.418Z,14.60
2023-05-15T05:13:24.631Z,15.00
2023-05-15T05:15:51.843Z,14.90
2023-05-15T05:18:19.065Z,14.70
2023-05-15T05:20:46.248Z,14.60
2023-05-15T05:23:15.036Z,14.40
2023-05-15T05:25:42.300Z,14.50
2023-05-15T05:28:09.486Z,14.70
2023-05-15T05:30:36.636Z,14.50
2023-05-15T05:33:03.897Z,14.60
2023-05-15T05:35:31.400Z,14.30
2023-05-15T05:37:58.595Z,14.50
2023-05-15T05:40:25.795Z,14.60
2023-05-15T05:42:53.070Z,14.40
2023-05-15T05:45:20.269Z,14.40
2023-05-15T05:47:47.480Z,14.50
2023-05-15T05:50:14.698Z,14.70
2023-05-15T05:52:41.897Z,14.90
2023-05-15T05:55:09.312Z,15.20
2023-05-15T05:57:36.579Z,14.90
2023-05-15T06:00:07.684Z,14.60
2023-05-15T06:02:34.981Z,14.90
2023-05-15T06:05:02.177Z,15.00
2023-05-15T06:07:29.340Z,14.40
2023-05-15T06:09:56.604Z,14.50
2023-05-15T06:12:23.877Z,14.30
2023-05-15T06:14:51.067Z,13.90
2023-05-15T06:17:18.289Z,14.10
2023-05-15T06:19:45.513Z,14.00
2023-05-15T06:22:12.686Z,14.50
2023-05-15T06:24:39.834Z,14.40
2023-05-15T06:27:07.065Z,14.30
2023-05-15T06:29:35.688Z,14.50
2023-05-15T06:32:02.879Z,14.80
2023-05-15T06:34:30.061Z,14.20
2023-05-15T06:36:57.260Z,14.40
2023-05-15T06:39:24.486Z,14.60
2023-05-15T06:41:57.884Z,14.40
2023-05-15T06:44:25.653Z,14.40
2023-05-15T06:46:53.046Z,14.50
2023-05-15T06:49:20.320Z,15.10
2023-05-15T06:51:47.572Z,14.40
2023-05-15T06:54:15.111Z,14.70
2023-05-15T06:56:42.279Z,15.10
2023-05-15T06:59:09.447Z,15.10
2023-05-15T07:01:36.688Z,14.60
2023-05-15T07:04:04.036Z,14.90
2023-05-15T07:06:32.024Z,14.40
2023-05-15T07:08:59.780Z,14.20
2023-05-15T07:11:27.402Z,14.00
2023-05-15T07:13:54.576Z,14.30
2023-05-15T07:16:21.768Z,14.30
2023-05-15T07:18:49.033Z,14.90
2023-05-15T07:21:16.293Z,14.90
2023-05-15T07:23:43.463Z,15.40
2023-05-15T07:26:16.845Z,15.00
2023-05-15T07:28:47.357Z,15.60
2023-05-15T07:31:14.561Z,15.50
2023-05-15T07:33:41.756Z,15.60
2023-05-15T07:36:09.124Z,15.20
2023-05-15T07:38:36.533Z,15.10
2023-05-15T07:41:03.665Z,15.20
2023-05-15T07:43:30.862Z,15.30
2023-05-15T07:45:58.229Z,14.70
2023-05-15T07:48:25.581Z,14.60
2023-05-15T07:50:53.725Z,14.80
2023-05-15T07:53:20.912Z,14.90
2023-05-15T07:55:48.217Z,14.20
2023-05-15T07:58:15.458Z,14.30
2023-05-15T08:00:42.682Z,14.80
2023-05-15T08:03:10.818Z,14.80
2023-05-15T08:05:38.848Z,15.00
2023-05-15T08:08:06.103Z,15.00
2023-05-15T08:10:33.303Z,14.30
2023-05-15T08:13:00.526Z,14.50
2023-05-15T08:15:28.004Z,15.30
2023-05-15T08:17:55.405Z,15.20
2023-05-15T08:20:22.708Z,15.50
2023-05-15T08:22:49.892Z,15.40
2023-05-15T08:25:17.125Z,16.10
2023-05-15T08:27:44.333Z,15.60
2023-05-15T08:30:12.078Z,15.50
2023-05-15T08:32:39.302Z,15.90
2023-05-15T08:35:07.157Z,15.50
2023-05-15T08:37:34.435Z,15.10
2023-05-15T08:40:01.687Z,15.00
2023-05-15T08:42:45.300Z,14.80
2023-05-15T08:45:13.844Z,15.10
2023-05-15T08:47:42.601Z,15.70
2023-05-15T08:50:15.184Z,16.30
2023-05-15T08:52:43.918Z,16.30
2023-05-15T08:55:11.501Z,15.40
2023-05-15T08:57:39.172Z,15.20
2023-05-15T09:00:11.908Z,16.20
2023-05-15T09:02:39.888Z,16.10
2023-05-15T09:05:08.254Z,16.30
2023-05-15T09:07:35.777Z,15.90
2023-05-15T09:10:04.123Z,16.30
2023-05-15T09:12:34.433Z,16.70
2023-05-15T09:15:24.991Z,17.60
2023-05-15T09:17:53.052Z,17.60
2023-05-15T09:20:37.208Z,16.90
2023-05-15T09:23:27.137Z,16.70
2023-05-15T09:26:02.024Z,17.30
2023-05-15T09:28:53.792Z,16.20
2023-05-15T09:37:41.667Z,16.40
2023-05-15T09:40:36.433Z,17.10
2023-05-15T09:43:44.337Z,16.40
2023-05-15T09:46:48.825Z,16.40
2023-05-15T09:49:57.177Z,16.70
2023-05-15T09:52:37.434Z,17.80
2023-05-15T09:55:17.179Z,17.30
2023-05-15T09:58:26.155Z,16.90
2023-05-15T10:04:38.498Z,17.80
2023-05-15T10:07:10.464Z,17.80
2023-05-15T10:09:51.845Z,18.90
2023-05-15T10:13:06.109Z,19.10
2023-05-15T10:16:05.252Z,18.30
2023-05-15T10:18:34.163Z,18.20
2023-05-15T10:21:04.142Z,17.80
2023-05-15T10:23:32.169Z,18.20
2023-05-15T10:26:07.729Z,18.20
2023-05-15T10:28:36.280Z,18.90
2023-05-15T10:31:04.258Z,18.40
2023-05-15T10:33:32.938Z,19.20
2023-05-15T10:36:00.204Z,18.80
2023-05-15T10:38:28.276Z,19.10
2023-05-15T10:41:13.043Z,18.70
2023-05-15T10:43:44.411Z,18.90
2023-05-15T10:46:12.102Z,19.60
2023-05-15T10:48:39.518Z,19.90
2023-05-15T10:51:17.696Z,18.90
2023-05-15T10:53:45.735Z,19.60
2023-05-15T10:56:14.792Z,19.60
2023-05-15T10:58:48.523Z,19.70
2023-05-15T11:01:27.331Z,19.70
2023-05-15T11:04:14.337Z,19.60
2023-05-15T11:06:46.566Z,20.50
2023-05-15T11:09:25.924Z,20.10
2023-05-15T11:12:01.933Z,20.40
2023-05-15T11:14:40.601Z,21.20
2023-05-15T11:17:17.618Z,20.50
2023-05-15T11:19:51.084Z,21.00
2023-05-15T11:22:21.042Z,20.50
2023-05-15T11:24:54.131Z,20.60
2023-05-15T11:27:23.807Z,20.50
2023-05-15T11:30:23.021Z,21.70
2023-05-15T11:33:03.660Z,20.80
2023-05-15T11:35:33.854Z,21.50
2023-05-15T11:38:04.051Z,21.10
2023-05-15T11:40:33.143Z,20.90
2023-05-15T11:43:01.881Z,21.40
2023-05-15T11:45:31.933Z,21.80
2023-05-15T11:48:02.518Z,21.70
2023-05-15T11:50:32.683Z,21.60
2023-05-15T11:53:04.465Z,21.10
2023-05-15T11:55:33.279Z,21.50
2023-05-15T11:58:01.297Z,21.70
2023-05-15T12:00:28.794Z,22.10
2023-05-15T12:02:56.123Z,21.60
2023-05-15T12:05:23.533Z,21.90
2023-05-15T12:07:51.015Z,22.10
2023-05-15T12:10:18.243Z,21.40
2023-05-15T12:12:46.364Z,21.50
2023-05-15T12:15:15.398Z,20.80
2023-05-15T12:17:43.958Z,21.80
2023-05-15T12:20:18.749Z,22.30
2023-05-15T12:22:46.049Z,21.70
2023-05-15T12:25:15.211Z,22.30
2023-05-15T12:27:42.575Z,22.40
2023-05-15T12:30:11.025Z,22.20
2023-05-15T12:32:38.824Z,21.20
2023-05-15T12:35:06.415Z,22.30
2023-05-15T12:37:35.269Z,21.90
2023-05-15T12:40:10.297Z,21.70
2023-05-15T12:42:44.796Z,22.70
2023-05-15T12:45:16.340Z,23.20
2023-05-15T12:47:44.995Z,22.50
2023-05-15T12:50:22.414Z,22.40
2023-05-15T12:53:00.913Z,23.60
2023-05-15T12:55:35.849Z,23.10
2023-05-15T12:58:08.779Z,24.00
2023-05-15T13:00:41.030Z,23.50
2023-05-15T13:03:12.534Z,24.40
2023-05-15T13:05:42.446Z,23.60
2023-05-15T13:08:09.602Z,23.70
2023-05-15T13:10:41.565Z,23.00
2023-05-15T13:13:12.802Z,22.70
2023-05-15T13:15:46.590Z,23.50
2023-05-15T13:18:17.087Z,23.20
2023-05-15T13:20:51.999Z,23.10
2023-05-15T13:23:24.815Z,22.50
2023-05-15T13:25:53.466Z,23.20
2023-05-15T13:28:25.553Z,23.70
2023-05-15T13:30:57.134Z,24.30
2023-05-15T13:33:28.960Z,23.60
2023-05-15T13:38:46.381Z,22.50
2023-05-15T13:41:13.608Z,21.50
2023-05-15T13:43:40.865Z,21.00
2023-05-15T13:46:08.033Z,21.10
2023-05-15T13:48:37.876Z,20.80
2023-05-15T13:51:10.464Z,20.90
2023-05-15T13:53:44.170Z,21.00
2023-05-15T13:56:16.281Z,20.20
2023-05-15T13:58:45.727Z,20.10
2023-05-15T14:01:17.078Z,20.20
2023-05-15T14:03:47.259Z,19.60
2023-05-15T14:06:20.250Z,19.70
2023-05-15T14:08:47.749Z,19.60
2023-05-15T14:11:24.392Z,19.40
2023-05-15T14:13:55.412Z,18.50
2023-05-15T14:16:22.559Z,18.00
2023-05-15T14:18:49.817Z,18.50
2023-05-15T14:21:16.972Z,18.50
2023-05-15T14:23:44.202Z,18.30
2023-05-15T14:26:11.441Z,18.20
2023-05-15T14:28:38.685Z,18.30
2023-05-15T14:31:05.912Z,18.10
2023-05-15T14:33:33.100Z,18.10
2023-05-15T14:36:01.070Z,17.70
2023-05-15T14:38:28.469Z,17.80
2023-05-15T14:40:55.739Z,17.80
2023-05-15T14:43:24.874Z,18.20
2023-05-15T14:45:52.265Z,18.30
2023-05-15T14:48:20.280Z,18.40
2023-05-15T14:50:47.454Z,18.30
2023-05-15T14:53:14.602Z,18.40
2023-05-15T14:55:41.879Z,18.70
2023-05-15T14:58:11.264Z,18.50
2023-05-15T15:00:38.618Z,18.30
2023-05-15T15:03:05.848Z,18.30
2023-05-15T15:05:33.124Z,18.30
2023-05-15T15:08:05.762Z,18.50
2023-05-15T15:10:34.779Z,18.40
2023-05-15T15:13:02.454Z,18.20
2023-05-15T15:15:30.374Z,17.70
2023-05-15T15:17:58.124Z,18.30
2023-05-15T15:20:26.571Z,18.10
2023-05-15T15:22:54.719Z,18.20
2023-05-15T15:25:22.674Z,18.40
2023-05-15T15:27:50.313Z,18.50
2023-05-15T15:30:17.548Z,18.50
2023-05-15T15:32:45.253Z,18.40
2023-05-15T15:35:13.124Z,18.40
2023-05-15T15:37:40.455Z,17.80
2023-05-15T15:40:08.354Z,17.90
2023-05-15T15:42:35.736Z,18.10
2023-05-15T15:45:03.115Z,18.00
2023-05-15T15:47:31.883Z,18.20
2023-05-15T15:49:59.760Z,18.40
2023-05-15T15:52:27.915Z,18.30
2023-05-15T15:54:55.326Z,18.40
2023-05-15T15:57:22.800Z,18.50
2023-05-15T15:59:50.167Z,18.30
2023-05-15T16:02:17.756Z,18.50
2023-05-15T16:04:44.969Z,18.60
2023-05-15T16:07:12.168Z,18.50
2023-05-15T16:09:39.332Z,18.40
2023-05-15T16:12:06.766Z,18.30
2023-05-15T16:14:33.950Z,18.50
2023-05-15T16:17:04.062Z,18.60
2023-05-15T16:19:31.394Z,18.40
2023-05-15T16:21:58.573Z,18.40
2023-05-15T16:24:26.342Z,18.70
2023-05-15T16:26:53.523Z,19.00
2023-05-15T16:29:20.781Z,19.00
2023-05-15T16:31:47.979Z,19.00
2023-05-15T16:34:15.410Z,18.80
2023-05-15T16:36:42.553Z,18.60
2023-05-15T16:39:09.769Z,18.90
2023-05-15T16:41:37.137Z,18.70
2023-05-15T16:44:06.079Z,18.70
2023-05-15T16:46:33.375Z,18.70
2023-05-15T16:49:00.688Z,18.10
2023-05-15T16:51:27.885Z,17.50
2023-05-15T16:53:56.394Z,17.70
2023-05-15T16:56:24.314Z,17.50
2023-05-15T16:58:52.969Z,17.80
2023-05-15T17:01:20.377Z,18.40
2023-05-15T17:03:47.640Z,18.10
2023-05-15T17:06:14.900Z,18.50
2023-05-15T17:08:43.445Z,18.70
2023-05-15T17:11:11.418Z,18.80
2023-05-15T17:13:38.697Z,18.70
2023-05-15T17:16:06.554Z,18.60
2023-05-15T17:18:33.801Z,18.70
2023-05-15T17:21:01.176Z,18.90
2023-05-15T17:23:28.363Z,18.90
2023-05-15T17:25:55.514Z,19.00
2023-05-15T17:28:22.743Z,19.00
2023-05-15T17:30:50.503Z,19.10
2023-05-15T17:33:17.674Z,18.90
2023-05-15T17:35:44.923Z,18.90
2023-05-15T17:38:12.097Z,18.70
2023-05-15T17:40:39.260Z,18.80
2023-05-15T17:43:06.462Z,18.40
2023-05-15T17:45:34.236Z,18.30
2023-05-15T17:48:03.796Z,18.20
2023-05-15T17:50:31.012Z,18.30
2023-05-15T17:52:58.254Z,18.10
2023-05-15T17:55:25.738Z,17.90
2023-05-15T17:57:53.193Z,17.70
2023-05-15T18:00:20.633Z,17.80
2023-05-15T18:02:47.866Z,17.80
2023-05-15T18:05:15.251Z,17.90
2023-05-15T18:07:42.506Z,18.00
2023-05-15T18:10:10.540Z,18.20
2023-05-15T18:12:37.840Z,18.20
2023-05-15T18:15:05.452Z,18.40
2023-05-15T18:17:32.688Z,18.50
2023-05-15T18:19:59.989Z,18.30
2023-05-15T18:22:27.204Z,18.30
2023-05-15T18:24:54.443Z,18.00
2023-05-15T18:27:21.704Z,17.50
2023-05-15T18:29:49.467Z,17.80
2023-05-15T18:32:16.736Z,17.90
2023-05-15T18:34:43.896Z,17.90
2023-05-15T18:37:11.184Z,18.00
2023-05-15T18:39:38.906Z,18.20
2023-05-15T18:42:07.033Z,18.20
2023-05-15T18:44:35.712Z,18.30
2023-05-15T18:47:03.125Z,18.20
2023-05-15T18:49:30.531Z,17.40
2023-05-15T18:51:58.001Z,17.60
2023-05-15T18:54:25.357Z,17.90
2023-05-15T18:56:52.522Z,17.60
2023-05-15T18:59:20.697Z,17.90
2023-05-15T19:01:49.493Z,18.00
2023-05-15T19:04:16.774Z,17.80
2023-05-15T19:06:44.173Z,17.80
2023-05-15T19:09:11.361Z,17.60
2023-05-15T19:11:38.545Z,17.60
2023-05-15T19:14:05.744Z,17.40
2023-05-15T19:16:33.051Z,17.30
2023-05-15T19:19:00.499Z,17.10
2023-05-15T19:21:27.862Z,16.70
2023-05-15T19:23:55.055Z,16.30
2023-05-15T19:26:22.272Z,16.10
2023-05-15T19:28:49.491Z,16.10
2023-05-15T19:31:27.854Z,16.10
2023-05-15T19:33:58.588Z,16.10
2023-05-15T19:36:25.859Z,16.10
2023-05-15T19:38:53.355Z,16.10
2023-05-15T19:41:21.599Z,16.10
2023-05-15T19:43:50.788Z,16.10
2023-05-15T19:46:18.633Z,16.20
2023-05-15T19:48:46.051Z,16.60
2023-05-15T19:51:13.383Z,16.80
2023-05-15T19:53:41.414Z,16.80
2023-05-15T19:56:08.680Z,16.40
2023-05-15T19:58:35.929Z,16.30
2023-05-15T20:01:04.202Z,16.20
2023-05-15T20:03:34.660Z,16.10
2023-05-15T20:06:02.527Z,16.10
2023-05-15T20:08:30.203Z,16.00
2023-05-15T20:10:57.644Z,15.90
2023-05-15T20:13:25.195Z,15.70
2023-05-15T20:15:57.007Z,15.70
2023-05-15T20:18:28.566Z,15.70
2023-05-15T20:20:56.147Z,15.70
2023-05-15T20:23:23.348Z,15.60
2023-05-15T20:25:51.281Z,15.40
2023-05-15T20:28:18.892Z,15.30
2023-05-15T20:30:48.963Z,15.20
2023-05-15T20:33:16.138Z,15.80
2023-05-15T20:35:43.577Z,15.90
2023-05-15T20:38:11.856Z,15.80
2023-05-15T20:40:39.297Z,16.20
2023-05-15T20:43:07.010Z,16.10
2023-05-15T20:45:34.364Z,15.90
2023-05-15T20:48:01.811Z,15.40
2023-05-15T20:50:29.170Z,15.30
2023-05-15T20:52:56.358Z,15.50
2023-05-15T20:55:23.611Z,15.80
2023-05-15T20:57:50.856Z,15.70
2023-05-15T21:00:18.718Z,15.80
2023-05-15T21:02:46.969Z,16.00
2023-05-15T21:05:14.740Z,16.00
2023-05-15T21:07:42.257Z,16.20
2023-05-15T21:10:09.802Z,16.20
2023-05-15T21:12:37.034Z,15.90
2023-05-15T21:15:05.087Z,15.70
2023-05-15T21:17:32.291Z,15.80
2023-05-15T21:20:01.026Z,15.90
2023-05-15T21:22:28.218Z,15.90
2023-05-15T21:24:55.609Z,16.10
2023-05-15T21:27:22.773Z,16.00
2023-05-15T21:29:49.987Z,16.20
2023-05-15T21:32:17.164Z,16.30
2023-05-15T21:34:44.369Z,16.30
2023-05-15T21:37:11.537Z,16.30
2023-05-15T21:39:38.737Z,16.10
2023-05-15T21:42:06.183Z,16.20
2023-05-15T21:44:34.416Z,16.10
2023-05-15T21:47:01.614Z,16.20
2023-05-15T21:49:28.809Z,16.10
2023-05-15T21:51:56.042Z,16.10
2023-05-15T21:54:23.239Z,16.20
2023-05-15T21:56:51.739Z,16.10
2023-05-15T21:59:19.174Z,15.90
2023-05-15T22:01:46.550Z,15.70
2023-05-15T22:04:13.879Z,15.50
2023-05-15T22:06:41.130Z,15.50
2023-05-15T22:09:08.306Z,15.70
2023-05-15T22:11:35.490Z,15.80
2023-05-15T22:14:02.981Z,15.90
2023-05-15T22:16:30.307Z,16.10
2023-05-15T22:18:57.834Z,16.00
2023-05-15T22:21:25.258Z,16.00
2023-05-15T22:23:52.445Z,15.90
2023-05-15T22:26:20.832Z,15.90
2023-05-15T22:28:48.805Z,16.00
2023-05-15T22:31:16.258Z,16.00
2023-05-15T22:33:43.456Z,15.70
2023-05-15T22:36:10.650Z,15.70
2023-05-15T22:38:37.807Z,15.40
2023-05-15T22:41:05.532Z,15.20
2023-05-15T22:43:33.068Z,15.40
2023-05-15T22:46:00.633Z,15.40
2023-05-15T22:48:27.839Z,15.40
2023-05-15T22:50:55.013Z,15.60
2023-05-15T22:53:22.175Z,15.70
2023-05-15T22:55:49.502Z,15.50
2023-05-15T22:58:16.999Z,15.70
2023-05-15T23:00:44.482Z,15.90
2023-05-15T23:03:11.973Z,15.60
2023-05-15T23:05:40.264Z,15.60
2023-05-15T23:08:07.487Z,15.70
2023-05-15T23:10:34.705Z,16.00
2023-05-15T23:13:01.904Z,16.00
2023-05-15T23:15:29.100Z,15.90
2023-05-15T23:17:56.363Z,15.60
2023-05-15T23:20:23.582Z,15.30
2023-05-15T23:22:50.783Z,15.40
2023-05-15T23:25:18.207Z,15.50
2023-05-15T23:27:45.496Z,15.30
2023-05-15T23:30:13.243Z,15.20
2023-05-15T23:32:40.582Z,15.30
2023-05-15T23:35:08.132Z,15.20
2023-05-15T23:37:35.820Z,15.00
2023-05-15T23:40:05.378Z,14.80
2023-05-15T23:42:32.628Z,15.00
2023-05-15T23:44:59.867Z,15.00
2023-05-15T23:47:27.122Z,14.70
2023-05-15T23:49:54.439Z,14.90
2023-05-15T23:52:21.631Z,15.00
2023-05-15T23:54:48.823Z,15.00
2023-05-15T23:57:16.181Z,15.10
2023-05-15T23:59:43.345Z,14.90
